Time;durP1;ratioP1;P1;durP2;ratioP2;P2;SDS_P1;SDS_P2;PMS_P1;PMS_P2;Temp;Humidity;BMP_temperature;BMP_pressure;BME280_temperature;BME280_humidity;BME280_pressure;Samples;Min_cycle;Max_cycle;Signal;HPM_P1;HPM_P2
2024/02/22 00:02:26;;;;;;;1.53;1.10;;;9.10;98.20;;;;;;6178677;23;20460;-83
2024/02/22 00:04:56;;;;;;;1.57;1.20;;;9.10;98.20;;;;;;6209826;23;20478;-83
2024/02/22 00:07:22;;;;;;;1.60;1.20;;;9.10;98.20;;;;;;6179292;23;20478;-84
2024/02/22 00:09:49;;;;;;;2.80;2.60;;;9.10;98.20;;;;;;6210509;23;20419;-84
2024/02/22 00:12:16;;;;;;;1.57;1.20;;;9.10;98.20;;;;;;6179913;23;20448;-83
2024/02/22 00:14:45;;;;;;;1.57;1.10;;;9.10;98.20;;;;;;6206882;23;20892;-82
2024/02/22 00:17:12;;;;;;;1.57;1.10;;;9.10;98.20;;;;;;6181241;23;20447;-83
2024/02/22 00:19:39;;;;;;;1.60;1.20;;;9.10;98.20;;;;;;6206105;23;20816;-83
2024/02/22 00:22:07;;;;;;;1.60;1.20;;;9.20;98.20;;;;;;6191664;23;20476;-82
2024/02/22 00:24:36;;;;;;;1.60;1.20;;;9.20;98.20;;;;;;6221406;23;20439;-83
2024/02/22 00:27:03;;;;;;;1.57;1.10;;;9.20;98.20;;;;;;6181970;23;20454;-83
2024/02/22 00:29:30;;;;;;;1.57;1.10;;;9.20;98.20;;;;;;6203839;23;20419;-82
2024/02/22 00:31:57;;;;;;;1.57;1.10;;;9.20;98.20;;;;;;6184062;23;20818;-83
2024/02/22 00:34:23;;;;;;;1.57;1.10;;;9.20;98.20;;;;;;6201587;23;21150;-83
2024/02/22 00:36:53;;;;;;;1.53;1.20;;;9.20;98.20;;;;;;6183545;23;20984;-84
2024/02/22 00:39:22;;;;;;;1.53;1.00;;;9.30;98.20;;;;;;6202087;23;20433;-82
2024/02/22 00:41:49;;;;;;;1.60;1.20;;;9.20;98.20;;;;;;6184359;23;20490;-84
2024/02/22 00:44:19;;;;;;;1.60;1.10;;;9.20;98.20;;;;;;6212153;23;20416;-86
2024/02/22 00:46:47;;;;;;;1.60;1.13;;;9.30;98.20;;;;;;6197889;23;20807;-86
2024/02/22 00:49:14;;;;;;;1.60;1.30;;;9.30;98.20;;;;;;6213280;23;20549;-86
2024/02/22 00:51:41;;;;;;;1.60;1.20;;;9.30;98.20;;;;;;6194001;23;20468;-85
2024/02/22 00:54:08;;;;;;;1.53;1.10;;;9.30;98.20;;;;;;6217049;23;20415;-87
2024/02/22 00:56:37;;;;;;;1.60;1.20;;;9.30;98.20;;;;;;6192911;23;20539;-88
2024/02/22 00:59:05;;;;;;;2.50;2.30;;;9.30;98.20;;;;;;6203257;23;20820;-85
2024/02/22 01:01:34;;;;;;;1.57;1.10;;;9.30;98.20;;;;;;6200052;23;20462;-87
2024/02/22 01:04:01;;;;;;;1.53;1.20;;;9.30;98.20;;;;;;6201563;23;20419;-85
2024/02/22 01:06:29;;;;;;;1.60;1.20;;;9.40;98.20;;;;;;6195278;23;20499;-85
2024/02/22 01:08:55;;;;;;;1.60;1.10;;;9.40;98.20;;;;;;6204282;23;20451;-86
2024/02/22 01:11:22;;;;;;;1.60;1.20;;;9.40;98.20;;;;;;6209248;23;20495;-88
2024/02/22 01:13:51;;;;;;;1.60;1.13;;;9.40;98.20;;;;;;6215235;23;20468;-86
2024/02/22 01:16:18;;;;;;;1.57;1.10;;;9.40;98.20;;;;;;6203355;23;20452;-86
2024/02/22 01:18:55;;;;;;;1.60;1.10;;;9.40;98.20;;;;;;6217741;23;20419;-87
2024/02/22 01:21:25;;;;;;;1.60;1.20;;;9.40;98.20;;;;;;6211158;23;20443;-88
2024/02/22 01:23:53;;;;;;;1.60;1.23;;;9.40;98.20;;;;;;6217132;23;20431;-88
2024/02/22 01:26:21;;;;;;;1.60;1.20;;;9.40;98.20;;;;;;6207839;23;20459;-88
2024/02/22 01:28:57;;;;;;;1.57;1.10;;;9.40;98.20;;;;;;6215643;23;20446;-87
2024/02/22 01:34:26;;;;;;;1.60;1.13;;;9.40;98.20;;;;;;6199275;23;20648;-88
2024/02/22 01:37:06;;;;;;;;;;;;;;;;;;;;;
2024/02/22 01:39:38;;;;;;;1.60;1.20;;;9.50;98.20;;;;;;6227384;23;20403;-87
2024/02/22 01:42:05;;;;;;;1.57;1.10;;;9.50;98.20;;;;;;6197089;23;20532;-89
2024/02/22 01:44:33;;;;;;;1.53;1.10;;;9.50;98.20;;;;;;6223027;23;20461;-88
2024/02/22 01:47:15;;;;;;;1.60;1.23;;;9.50;98.20;;;;;;6196378;23;20449;-88
2024/02/22 01:49:43;;;;;;;1.60;1.20;;;9.50;98.20;;;;;;6226385;23;20442;-87
2024/02/22 01:52:12;;;;;;;1.60;1.30;;;9.50;98.20;;;;;;6195978;23;20499;-88
2024/02/22 01:54:39;;;;;;;1.60;1.13;;;9.50;98.20;;;;;;6228632;23;20469;-86
2024/02/22 01:57:06;;;;;;;1.57;1.20;;;9.50;98.20;;;;;;6200137;23;20730;-88
2024/02/22 01:59:34;;;;;;;1.57;1.20;;;9.50;98.20;;;;;;6230146;23;20421;-88
2024/02/22 02:02:01;;;;;;;1.53;1.20;;;9.50;98.20;;;;;;6196686;23;20448;-86
2024/02/22 02:04:30;;;;;;;1.60;1.20;;;9.50;98.20;;;;;;6215432;23;20907;-87
2024/02/22 02:07:00;;;;;;;1.53;1.10;;;9.50;98.20;;;;;;6196338;23;20482;-85
2024/02/22 02:09:28;;;;;;;1.60;1.30;;;9.60;98.20;;;;;;6225503;23;20986;-86
2024/02/22 02:11:55;;;;;;;1.60;1.30;;;9.60;98.20;;;;;;6199191;23;20448;-86
2024/02/22 02:14:22;;;;;;;1.57;1.10;;;9.60;98.20;;;;;;6222134;23;20427;-87
2024/02/22 02:16:52;;;;;;;1.60;1.30;;;9.60;98.20;;;;;;6200689;23;20543;-85
2024/02/22 02:19:24;;;;;;;1.53;1.10;;;9.60;98.20;;;;;;6212397;23;20419;-86
2024/02/22 02:22:07;;;;;;;1.53;1.10;;;9.60;98.20;;;;;;6202331;23;20523;-87
2024/02/22 02:24:42;;;;;;;1.60;1.20;;;9.70;98.20;;;;;;6226403;23;20442;-87
2024/02/22 02:27:16;;;;;;;1.60;1.10;;;9.70;98.20;;;;;;6196843;23;20474;-86
2024/02/22 02:29:45;;;;;;;1.60;1.20;;;9.70;98.20;;;;;;6226806;23;20443;-88
2024/02/22 02:32:12;;;;;;;1.60;1.20;;;9.70;98.20;;;;;;6194773;23;20447;-86
2024/02/22 02:34:39;;;;;;;1.60;1.10;;;9.70;98.20;;;;;;6225386;23;20442;-87
2024/02/22 02:37:27;;;;;;;1.50;1.10;;;9.70;98.20;;;;;;6187926;23;20476;-83
2024/02/22 02:39:55;;;;;;;1.50;1.10;;;9.70;98.20;;;;;;6230297;23;20415;-86
2024/02/22 02:42:26;;;;;;;1.53;1.07;;;9.70;98.20;;;;;;6191897;23;20471;-86
2024/02/22 02:44:56;;;;;;;1.60;1.30;;;9.70;98.20;;;;;;6229355;23;20454;-86
2024/02/22 02:47:23;;;;;;;1.53;1.10;;;9.70;98.20;;;;;;6185939;23;20513;-80
2024/02/22 02:49:50;;;;;;;1.60;1.20;;;9.70;98.20;;;;;;6207103;23;20447;-80
2024/02/22 02:52:17;;;;;;;1.57;1.10;;;9.70;98.20;;;;;;6176042;23;20885;-80
2024/02/22 02:54:44;;;;;;;1.60;1.20;;;9.70;98.20;;;;;;6205039;23;20419;-80
2024/02/22 02:57:10;;;;;;;1.57;1.10;;;9.70;98.20;;;;;;6177188;23;20462;-80
2024/02/22 02:59:38;;;;;;;1.57;1.10;;;9.70;98.20;;;;;;6181941;23;20412;-79
2024/02/22 03:02:05;;;;;;;1.60;1.20;;;9.70;98.20;;;;;;6166056;23;20777;-80
2024/02/22 03:04:32;;;;;;;1.57;1.10;;;9.70;98.20;;;;;;6180352;23;20423;-81
2024/02/22 03:06:59;;;;;;;1.60;1.20;;;9.70;98.20;;;;;;6166667;23;20467;-80
2024/02/22 03:09:25;;;;;;;1.60;1.20;;;9.70;98.20;;;;;;6182236;23;20805;-80
2024/02/22 03:11:52;;;;;;;1.60;1.13;;;9.70;98.20;;;;;;6168830;23;20448;-80
2024/02/22 03:14:19;;;;;;;1.60;1.10;;;9.70;98.20;;;;;;6182509;23;20699;-79
2024/02/22 03:16:47;;;;;;;1.53;1.10;;;9.70;98.20;;;;;;6165481;23;20462;-79
2024/02/22 03:19:14;;;;;;;1.60;1.23;;;9.70;98.20;;;;;;6182217;23;20412;-80
2024/02/22 03:21:40;;;;;;;1.53;1.10;;;9.70;98.20;;;;;;6165337;23;20448;-80
2024/02/22 03:24:08;;;;;;;1.57;1.10;;;9.70;98.20;;;;;;6179541;23;20426;-79
2024/02/22 03:26:36;;;;;;;1.53;1.10;;;9.70;98.20;;;;;;6164405;23;20474;-79
2024/02/22 03:29:03;;;;;;;1.53;1.10;;;9.70;98.20;;;;;;6178791;23;20828;-79
2024/02/22 03:31:29;;;;;;;1.60;1.10;;;9.70;98.20;;;;;;6164101;23;20448;-79
2024/02/22 03:33:58;;;;;;;1.50;1.10;;;9.70;98.20;;;;;;6178019;23;20499;-79
2024/02/22 03:36:24;;;;;;;1.60;1.10;;;9.70;98.20;;;;;;6164172;23;20443;-79
2024/02/22 03:38:53;;;;;;;1.60;1.20;;;9.80;98.20;;;;;;6179649;23;20477;-79
2024/02/22 03:41:24;;;;;;;1.60;1.10;;;9.70;98.20;;;;;;6165370;23;21026;-80
2024/02/22 03:43:50;;;;;;;1.57;1.17;;;9.70;98.20;;;;;;6178642;23;20416;-79
2024/02/22 03:46:17;;;;;;;1.50;1.10;;;9.80;98.20;;;;;;6164590;23;20746;-79
2024/02/22 03:48:44;;;;;;;1.50;1.10;;;9.80;98.20;;;;;;6178799;23;21014;-79
2024/02/22 03:51:12;;;;;;;1.57;1.10;;;9.80;98.20;;;;;;6165404;23;20447;-79
2024/02/22 03:53:39;;;;;;;1.60;1.10;;;9.80;98.20;;;;;;6178517;23;20470;-79
2024/02/22 03:56:06;;;;;;;1.57;1.10;;;9.80;98.20;;;;;;6165156;23;20518;-79
2024/02/22 03:58:33;;;;;;;1.60;1.20;;;9.80;98.20;;;;;;6179961;23;20623;-80
2024/02/22 04:01:00;;;;;;;1.57;1.10;;;9.80;98.20;;;;;;6174807;23;20482;-79
2024/02/22 04:03:27;;;;;;;1.60;1.20;;;9.80;98.20;;;;;;6178312;23;20882;-80
2024/02/22 04:05:54;;;;;;;1.57;1.03;;;9.80;98.20;;;;;;6163749;23;20428;-79
2024/02/22 04:08:22;;;;;;;1.60;1.07;;;9.80;98.20;;;;;;6178753;23;20442;-79
2024/02/22 04:10:49;;;;;;;1.60;1.20;;;9.80;98.20;;;;;;6166217;23;20423;-79
2024/02/22 04:13:16;;;;;;;1.50;1.10;;;9.80;98.20;;;;;;6177467;23;20424;-79
2024/02/22 04:15:42;;;;;;;1.60;1.20;;;9.80;98.20;;;;;;6180058;23;20416;-80
2024/02/22 04:18:09;;;;;;;1.50;1.10;;;9.80;98.20;;;;;;6163921;23;20930;-79
2024/02/22 04:20:36;;;;;;;1.57;1.10;;;9.80;98.20;;;;;;6181576;23;20507;-79
2024/02/22 04:23:03;;;;;;;1.50;1.10;;;9.80;98.20;;;;;;6162370;23;20458;-79
2024/02/22 04:25:31;;;;;;;1.50;1.10;;;9.80;98.20;;;;;;6179581;23;20420;-79
2024/02/22 04:27:57;;;;;;;1.53;1.10;;;9.80;98.20;;;;;;6164104;23;21035;-79
2024/02/22 04:30:24;;;;;;;1.57;1.07;;;9.80;98.20;;;;;;6180579;23;20454;-79
2024/02/22 04:32:51;;;;;;;1.53;1.10;;;9.80;98.20;;;;;;6162486;23;20458;-79
2024/02/22 04:35:18;;;;;;;1.50;1.10;;;9.80;98.20;;;;;;6180038;23;20416;-80
2024/02/22 04:37:45;;;;;;;1.57;1.10;;;9.80;98.20;;;;;;6163918;23;20459;-80
2024/02/22 04:40:12;;;;;;;1.60;1.10;;;9.80;98.20;;;;;;6181422;23;20427;-79
2024/02/22 04:42:40;;;;;;;1.57;1.10;;;9.80;98.20;;;;;;6164042;23;20452;-80
2024/02/22 04:45:08;;;;;;;1.60;1.20;;;9.80;98.20;;;;;;6180095;23;20424;-79
2024/02/22 04:47:36;;;;;;;1.50;1.10;;;9.80;98.20;;;;;;6163188;23;20495;-79
2024/02/22 04:50:04;;;;;;;1.50;1.10;;;9.80;98.20;;;;;;6180014;23;20444;-80
2024/02/22 04:52:31;;;;;;;1.57;1.10;;;9.80;98.20;;;;;;6163706;23;20964;-79
2024/02/22 04:54:59;;;;;;;1.60;1.20;;;9.80;98.20;;;;;;6179073;23;20424;-80
2024/02/22 04:57:26;;;;;;;1.53;1.10;;;9.80;98.20;;;;;;6164078;23;20456;-79
2024/02/22 04:59:54;;;;;;;1.60;1.20;;;9.80;98.20;;;;;;6179433;23;20706;-79
2024/02/22 05:02:21;;;;;;;1.60;1.10;;;9.80;98.20;;;;;;6161069;23;20448;-79
2024/02/22 05:04:47;;;;;;;1.50;1.10;;;9.80;98.20;;;;;;6178240;23;20929;-79
2024/02/22 05:07:14;;;;;;;1.53;1.10;;;9.80;98.20;;;;;;6163406;23;20458;-79
2024/02/22 05:09:42;;;;;;;1.57;1.10;;;9.90;98.20;;;;;;6179081;23;20444;-79
2024/02/22 05:12:10;;;;;;;1.57;1.10;;;9.90;98.20;;;;;;6163126;23;20448;-79
2024/02/22 05:14:37;;;;;;;1.60;1.20;;;9.90;98.20;;;;;;6178199;23;20455;-79
2024/02/22 05:17:05;;;;;;;1.60;1.30;;;9.90;98.20;;;;;;6163576;23;20455;-79
2024/02/22 05:19:32;;;;;;;1.53;1.13;;;9.90;98.20;;;;;;6179058;23;20441;-79
2024/02/22 05:21:58;;;;;;;1.53;1.10;;;9.90;98.20;;;;;;6163038;23;21017;-80
2024/02/22 05:24:27;;;;;;;1.53;1.10;;;9.90;98.20;;;;;;6182290;23;20422;-80
2024/02/22 05:26:54;;;;;;;1.57;1.10;;;9.90;98.20;;;;;;6164387;23;20458;-80
2024/02/22 05:29:21;;;;;;;1.60;1.23;;;10.00;98.20;;;;;;6183163;23;20447;-80
2024/02/22 05:31:47;;;;;;;1.60;1.10;;;10.00;98.20;;;;;;6168417;23;20448;-80
2024/02/22 05:34:16;;;;;;;1.50;1.10;;;10.00;98.20;;;;;;6182597;23;20443;-80
2024/02/22 05:36:42;;;;;;;1.57;1.10;;;9.90;98.20;;;;;;6173908;23;20452;-80
2024/02/22 05:39:11;;;;;;;1.60;1.13;;;9.90;98.20;;;;;;6182328;23;20532;-80
2024/02/22 05:41:38;;;;;;;1.53;1.10;;;9.90;98.20;;;;;;6167634;23;20461;-79
2024/02/22 05:44:05;;;;;;;1.50;1.00;;;9.90;98.20;;;;;;6181104;23;20420;-80
2024/02/22 05:46:31;;;;;;;1.57;1.10;;;9.90;98.20;;;;;;6167417;23;20458;-80
2024/02/22 05:48:58;;;;;;;1.60;1.20;;;9.90;98.20;;;;;;6182861;23;20447;-80
2024/02/22 05:51:28;;;;;;;1.50;1.20;;;9.90;98.20;;;;;;6167458;23;20486;-80
2024/02/22 05:53:55;;;;;;;1.60;1.10;;;10.00;98.20;;;;;;6190261;23;20928;-79
2024/02/22 05:56:22;;;;;;;1.60;1.20;;;10.00;98.20;;;;;;6167431;23;20844;-80
2024/02/22 05:58:48;;;;;;;1.53;1.10;;;10.00;98.20;;;;;;6182262;23;20436;-80
2024/02/22 06:01:15;;;;;;;1.60;1.20;;;10.00;98.20;;;;;;6167625;23;20527;-80
2024/02/22 06:03:42;;;;;;;1.60;1.10;;;10.00;98.20;;;;;;6179390;23;20499;-79
2024/02/22 06:06:10;;;;;;;1.50;1.10;;;10.00;98.20;;;;;;6166992;23;20451;-81
2024/02/22 06:08:42;;;;;;;1.60;1.27;;;10.00;98.20;;;;;;6180106;23;20440;-80
2024/02/22 06:11:09;;;;;;;1.53;1.10;;;10.00;98.20;;;;;;6166669;23;20447;-80
2024/02/22 06:13:36;;;;;;;1.57;1.10;;;10.00;98.20;;;;;;6180697;23;20419;-80
2024/02/22 06:16:03;;;;;;;1.57;1.10;;;10.00;98.20;;;;;;6166670;23;20428;-80
2024/02/22 06:18:30;;;;;;;1.60;1.10;;;10.00;98.20;;;;;;6180398;23;20443;-80
2024/02/22 06:20:57;;;;;;;1.57;1.10;;;10.00;98.20;;;;;;6176022;23;20440;-80
2024/02/22 06:23:24;;;;;;;1.60;1.10;;;10.10;98.20;;;;;;6180180;23;20435;-81
2024/02/22 06:25:52;;;;;;;1.53;1.10;;;10.10;98.20;;;;;;6166572;23;20422;-80
2024/02/22 06:28:18;;;;;;;1.57;1.20;;;10.10;98.20;;;;;;6180844;23;20835;-80
2024/02/22 06:30:46;;;;;;;1.60;1.10;;;10.10;98.20;;;;;;6181425;23;20976;-82
2024/02/22 06:33:13;;;;;;;1.60;1.20;;;10.10;98.20;;;;;;6140275;23;20432;-80
2024/02/22 06:35:39;;;;;;;1.50;1.10;;;10.10;98.20;;;;;;6182220;23;20424;-80
2024/02/22 06:38:05;;;;;;;1.60;1.10;;;10.10;98.20;;;;;;6171799;23;20540;-80
2024/02/22 06:40:32;;;;;;;1.57;1.10;;;10.10;98.20;;;;;;6190349;23;20176;-80
2024/02/22 06:43:00;;;;;;;1.60;1.10;;;10.10;98.20;;;;;;6174248;23;20511;-80
2024/02/22 06:45:27;;;;;;;1.60;1.10;;;10.10;98.20;;;;;;6190253;23;20522;-81
2024/02/22 06:47:54;;;;;;;1.57;1.10;;;10.10;98.20;;;;;;6164691;23;20531;-80
2024/02/22 06:50:21;;;;;;;1.60;1.30;;;10.20;98.20;;;;;;6189562;23;20932;-80
2024/02/22 06:52:48;;;;;;;1.53;1.07;;;10.20;98.20;;;;;;6166976;23;20454;-81
2024/02/22 06:55:15;;;;;;;1.60;1.20;;;10.20;98.20;;;;;;6182983;23;20423;-81
2024/02/22 06:57:42;;;;;;;1.57;1.10;;;10.20;98.20;;;;;;6167173;23;20471;-81
2024/02/22 07:00:14;;;;;;;1.60;1.20;;;10.20;98.20;;;;;;6182981;23;20932;-81
2024/02/22 07:02:41;;;;;;;1.60;1.10;;;10.20;98.20;;;;;;6169752;23;20458;-81
2024/02/22 07:05:09;;;;;;;1.50;1.10;;;10.20;98.20;;;;;;6192791;23;20482;-81
2024/02/22 07:07:36;;;;;;;1.57;1.10;;;10.20;98.20;;;;;;6166636;23;20484;-80
2024/02/22 07:10:03;;;;;;;1.57;1.13;;;10.20;98.20;;;;;;6181754;23;20545;-81
2024/02/22 07:12:30;;;;;;;1.60;1.20;;;10.20;98.20;;;;;;6167434;23;20448;-81
2024/02/22 07:14:57;;;;;;;1.53;1.10;;;10.20;98.20;;;;;;6181316;23;20674;-81
2024/02/22 07:17:25;;;;;;;1.57;1.10;;;10.20;98.20;;;;;;6165768;23;20528;-81
2024/02/22 07:19:52;;;;;;;1.57;1.10;;;10.20;98.20;;;;;;6192237;23;20416;-81
2024/02/22 07:22:19;;;;;;;1.57;1.10;;;10.20;98.20;;;;;;6171786;23;20447;-81
2024/02/22 07:24:46;;;;;;;1.60;1.20;;;10.20;98.20;;;;;;6181615;23;20447;-80
2024/02/22 07:27:12;;;;;;;1.60;1.10;;;10.30;98.20;;;;;;6165705;23;20452;-81
2024/02/22 07:29:39;;;;;;;1.53;1.10;;;10.30;98.20;;;;;;6179709;23;20448;-80
2024/02/22 07:32:08;;;;;;;1.60;1.17;;;10.30;98.20;;;;;;6169803;23;21006;-81
2024/02/22 07:34:36;;;;;;;1.57;1.10;;;10.30;98.20;;;;;;6182842;23;20519;-80
2024/02/22 07:37:03;;;;;;;1.60;1.20;;;10.30;98.20;;;;;;6171100;23;20458;-81
2024/02/22 07:39:29;;;;;;;1.60;1.30;;;10.30;98.20;;;;;;6181169;23;20443;-80
2024/02/22 07:41:57;;;;;;;1.60;1.10;;;10.30;98.20;;;;;;6170861;23;20452;-80
2024/02/22 07:44:23;;;;;;;1.57;1.10;;;10.30;98.20;;;;;;6179900;23;20479;-80
2024/02/22 07:46:52;;;;;;;1.60;1.20;;;10.30;98.20;;;;;;6164393;23;20543;-80
2024/02/22 07:49:20;;;;;;;1.60;1.10;;;10.30;98.20;;;;;;6189773;23;20416;-80
2024/02/22 07:51:49;;;;;;;1.57;1.10;;;10.30;98.20;;;;;;6164214;23;20849;-80
2024/02/22 07:54:16;;;;;;;1.57;1.10;;;10.30;98.20;;;;;;6181394;23;20929;-80
2024/02/22 07:56:43;;;;;;;1.60;1.10;;;10.30;98.20;;;;;;6165924;23;20532;-81
2024/02/22 07:59:11;;;;;;;1.57;1.10;;;10.40;98.20;;;;;;6179900;23;20514;-80
2024/02/22 08:01:40;;;;;;;1.50;1.10;;;10.40;98.20;;;;;;6165233;23;20458;-81
2024/02/22 08:04:07;;;;;;;1.60;1.10;;;10.40;98.20;;;;;;6179162;23;20416;-80
2024/02/22 08:06:34;;;;;;;1.60;1.10;;;10.50;98.20;;;;;;6165327;23;20506;-81
2024/02/22 08:09:02;;;;;;;1.60;1.10;;;10.50;98.20;;;;;;6179767;23;20955;-81
2024/02/22 08:11:29;;;;;;;1.53;1.07;;;10.50;98.20;;;;;;6165462;23;21083;-80
2024/02/22 08:13:55;;;;;;;1.60;1.13;;;10.60;98.20;;;;;;6185219;23;20425;-81
2024/02/22 08:16:22;;;;;;;1.60;1.10;;;10.60;98.20;;;;;;6166312;23;20526;-80
2024/02/22 08:18:49;;;;;;;1.60;1.10;;;10.70;98.20;;;;;;6181330;23;20444;-81
2024/02/22 08:21:20;;;;;;;1.57;1.10;;;10.70;98.20;;;;;;6176361;23;20455;-82
2024/02/22 08:23:51;;;;;;;1.57;1.10;;;10.70;98.20;;;;;;6180785;23;20563;-81
2024/02/22 08:26:19;;;;;;;1.57;1.10;;;10.70;98.20;;;;;;6167443;23;20443;-82
2024/02/22 08:28:46;;;;;;;1.57;1.10;;;10.80;98.20;;;;;;6190580;23;20486;-81
2024/02/22 08:31:13;;;;;;;1.60;1.10;;;10.80;98.20;;;;;;6147087;23;20452;-81
2024/02/22 08:33:41;;;;;;;1.60;1.10;;;10.80;98.20;;;;;;6153671;23;20835;-80
2024/02/22 08:36:08;;;;;;;1.60;1.13;;;10.90;98.20;;;;;;6164346;23;20439;-79
2024/02/22 08:38:35;;;;;;;1.57;1.10;;;10.90;98.20;;;;;;6178248;23;20801;-78
2024/02/22 08:41:03;;;;;;;1.60;1.20;;;10.90;98.20;;;;;;6162255;23;20447;-79
2024/02/22 08:43:31;;;;;;;1.60;1.10;;;11.00;98.20;;;;;;6176886;23;20514;-79
2024/02/22 08:46:01;;;;;;;1.60;1.10;;;11.10;98.20;;;;;;6164286;23;20932;-79
2024/02/22 08:48:28;;;;;;;1.60;1.10;;;11.20;98.20;;;;;;6177440;23;20443;-79
2024/02/22 08:50:57;;;;;;;1.60;1.10;;;11.20;98.20;;;;;;6162766;23;20549;-80
2024/02/22 08:53:35;;;;;;;1.57;1.10;;;11.30;98.20;;;;;;6185229;23;20986;-86
2024/02/22 08:56:18;;;;;;;;;;;;;;;;;;;;;
2024/02/22 08:59:00;;;;;;;1.53;1.10;;;11.40;98.20;;;;;;6206690;23;20418;-86
2024/02/22 09:01:37;;;;;;;1.60;1.10;;;11.40;98.20;;;;;;6197181;23;20432;-87
2024/02/22 09:04:28;;;;;;;1.60;1.10;;;11.40;98.20;;;;;;6175935;23;20427;-86
2024/02/22 09:07:39;;;;;;;;;;;;;;;;;;;;;
2024/02/22 09:10:40;;;;;;;1.60;1.10;;;11.50;98.20;;;;;;6191916;23;20507;-86
2024/02/22 09:13:16;;;;;;;1.50;1.00;;;11.50;98.20;;;;;;6052330;23;20442;-86
2024/02/22 09:16:32;;;;;;;1.60;1.20;;;11.50;98.20;;;;;;6223644;23;20422;-85
2024/02/22 09:19:01;;;;;;;1.60;1.10;;;11.60;98.20;;;;;;6220476;23;20437;-86
2024/02/22 09:21:48;;;;;;;1.60;1.20;;;11.60;98.20;;;;;;6194997;23;20751;-86
2024/02/22 09:24:31;;;;;;;1.53;1.00;;;11.60;98.20;;;;;;6181822;23;20807;-87
2024/02/22 09:30:01;;;;;;;1.57;1.00;;;11.60;98.20;;;;;;6163593;23;20428;-86
2024/02/22 09:35:46;;;;;;;;;;;;;;;;;;;;;
2024/02/22 09:38:59;;;;;;;1.60;1.17;;;11.60;98.20;;;;;;6144615;23;20527;-85
2024/02/22 09:42:13;;;;;;;1.60;1.00;;;11.60;98.20;;;;;;6119207;23;20430;-86
2024/02/22 09:48:28;;;;;;;1.60;1.10;;;11.70;98.20;;;;;;6067830;23;20856;-86
2024/02/22 09:57:53;;;;;;;1.60;1.00;;;11.80;98.20;;;;;;6045992;23;20439;-85
2024/02/22 10:00:50;;;;;;;1.60;1.10;;;11.80;98.20;;;;;;6199251;23;20466;-86
2024/02/22 10:03:40;;;;;;;1.50;1.00;;;11.80;98.20;;;;;;6112615;23;20439;-86
2024/02/22 10:06:29;;;;;;;1.60;1.10;;;11.90;98.20;;;;;;6178586;23;20444;-86
2024/02/22 10:09:04;;;;;;;1.60;1.10;;;11.90;98.20;;;;;;6180478;23;20475;-86
2024/02/22 10:12:05;;;;;;;;;;;;;;;;;;;;;
2024/02/22 10:14:44;;;;;;;1.57;1.00;;;12.10;98.20;;;;;;6189832;23;20429;-86
2024/02/22 10:17:24;;;;;;;1.50;1.00;;;12.10;98.20;;;;;;6160011;23;20492;-86
2024/02/22 10:20:06;;;;;;;1.57;1.00;;;12.20;98.20;;;;;;6194005;23;20454;-87
2024/02/22 10:22:36;;;;;;;1.60;1.00;;;12.30;98.20;;;;;;6151585;23;20552;-86
2024/02/22 10:25:26;;;;;;;1.53;1.00;;;12.30;98.20;;;;;;6196359;23;20446;-86
2024/02/22 10:28:28;;;;;;;1.57;1.07;;;12.40;98.20;;;;;;6148875;23;20507;-87
2024/02/22 10:31:24;;;;;;;1.60;1.00;;;12.40;98.20;;;;;;6120762;23;20451;-85
2024/02/22 10:34:02;;;;;;;1.57;1.00;;;12.50;98.20;;;;;;6148607;23;20511;-86
2024/02/22 10:36:53;;;;;;;1.60;1.00;;;12.60;98.20;;;;;;6172515;23;20445;-84
2024/02/22 10:39:35;;;;;;;1.57;1.00;;;12.60;98.20;;;;;;6167975;23;20452;-84
2024/02/22 10:45:40;;;;;;;1.60;1.10;;;12.70;98.20;;;;;;6109331;23;20398;-85
2024/02/22 10:48:13;;;;;;;1.60;1.10;;;12.80;98.20;;;;;;6151199;23;20791;-86
2024/02/22 10:50:42;;;;;;;1.53;1.00;;;12.80;98.20;;;;;;6199292;23;20620;-82
2024/02/22 10:53:24;;;;;;;1.60;1.10;;;12.80;98.20;;;;;;6148148;23;20471;-85
2024/02/22 10:56:04;;;;;;;1.60;1.00;;;12.90;98.20;;;;;;6184481;23;20420;-85
2024/02/22 10:58:49;;;;;;;1.60;1.23;;;12.90;98.20;;;;;;6181606;23;20512;-86
2024/02/22 11:01:16;;;;;;;1.60;1.10;;;13.00;98.20;;;;;;6177794;23;20440;-87
2024/02/22 11:03:54;;;;;;;1.57;1.00;;;13.10;98.20;;;;;;6179203;23;20444;-84
2024/02/22 11:06:25;;;;;;;1.60;1.10;;;13.10;98.20;;;;;;6174508;23;20838;-85
2024/02/22 11:08:52;;;;;;;1.60;1.07;;;13.10;98.20;;;;;;6173567;23;20459;-85
2024/02/22 11:11:44;;;;;;;1.60;1.10;;;13.30;98.20;;;;;;6175343;23;21048;-85
2024/02/22 11:14:17;;;;;;;1.60;1.10;;;13.30;98.20;;;;;;6187965;23;20775;-87
2024/02/22 11:16:47;;;;;;;1.60;1.07;;;13.30;98.20;;;;;;6172376;23;20790;-85
2024/02/22 11:19:28;;;;;;;1.57;1.07;;;13.40;98.20;;;;;;6177698;23;20420;-85
2024/02/22 11:24:47;;;;;;;1.60;1.00;;;13.50;98.20;;;;;;6217900;22;20459;-84
2024/02/22 11:27:23;;;;;;;1.60;1.10;;;13.50;98.20;;;;;;6184531;23;20559;-84
2024/02/22 11:29:53;;;;;;;1.57;1.00;;;13.50;98.20;;;;;;6218217;23;20815;-86
2024/02/22 11:35:13;;;;;;;1.60;1.00;;;13.50;98.20;;;;;;6180571;23;20424;-85
2024/02/22 11:37:43;;;;;;;1.60;1.10;;;13.50;98.20;;;;;;6140551;23;20476;-84
2024/02/22 11:40:21;;;;;;;;;;;;;;;;;;;;;
2024/02/22 11:42:55;;;;;;;1.53;1.00;;;13.60;98.20;;;;;;6141816;23;20836;-84
2024/02/22 11:45:22;;;;;;;1.60;1.00;;;13.70;98.20;;;;;;6193437;23;20854;-86
2024/02/22 11:47:53;;;;;;;1.60;1.10;;;13.80;98.20;;;;;;6140821;23;20452;-85
2024/02/22 11:50:30;;;;;;;1.53;1.00;;;13.80;98.20;;;;;;6187611;23;20416;-85
2024/02/22 11:56:09;;;;;;;1.53;1.00;;;13.70;98.20;;;;;;6134121;23;20428;-86
2024/02/22 11:58:38;;;;;;;1.57;1.00;;;13.70;98.20;;;;;;6171294;23;20400;-87
2024/02/22 12:01:05;;;;;;;1.57;1.00;;;13.70;98.20;;;;;;6171097;23;20423;-84
2024/02/22 12:06:51;;;;;;;1.60;1.10;;;13.60;98.20;;;;;;6100859;22;20495;-85
2024/02/22 12:16:30;;;;;;;1.50;0.97;;;13.60;98.20;;;;;;5103784;27;20538;-86
2024/02/22 12:19:00;;;;;;;1.60;1.10;;;13.60;98.20;;;;;;5069331;28;20465;-87
2024/02/22 12:21:33;;;;;;;1.53;1.00;;;13.60;98.20;;;;;;5069739;28;20464;-86
2024/02/22 12:24:41;;;;;;;1.57;1.00;;;13.60;98.20;;;;;;5068922;28;21022;-88
2024/02/22 12:27:55;;;;;;;1.60;1.00;;;13.60;98.20;;;;;;4973103;28;20638;-88
2024/02/22 12:30:54;;;;;;;1.60;1.07;;;13.60;98.20;;;;;;5007285;28;20476;-89
2024/02/22 12:33:27;;;;;;;1.60;1.00;;;13.70;98.20;;;;;;5046267;28;20507;-87
2024/02/22 12:36:39;;;;;;;1.57;1.00;;;13.70;98.20;;;;;;5053206;28;20977;-88
2024/02/22 12:39:34;;;;;;;1.60;1.00;;;13.70;98.20;;;;;;4951405;28;20871;-87
2024/02/22 12:48:34;;;;;;;;;;;;;;;;;;;;;
2024/02/22 12:51:34;;;;;;;1.60;1.10;;;13.70;98.20;;;;;;5047817;28;20457;-86
2024/02/22 12:54:08;;;;;;;1.57;1.00;;;13.70;98.20;;;;;;5064264;28;20494;-87
2024/02/22 12:57:33;;;;;;;1.60;1.00;;;13.70;98.20;;;;;;5054206;28;20539;-87
2024/02/22 13:00:13;;;;;;;1.60;1.10;;;13.70;98.20;;;;;;5039148;28;20469;-88
2024/02/22 13:02:53;;;;;;;1.60;1.00;;;13.80;98.20;;;;;;5050785;28;20564;-87
2024/02/22 13:05:30;;;;;;;1.60;1.10;;;13.80;98.20;;;;;;5062470;28;20465;-87
2024/02/22 13:08:04;;;;;;;1.57;1.00;;;13.90;98.20;;;;;;5049533;28;20508;-88
2024/02/22 13:10:48;;;;;;;1.60;1.00;;;13.90;98.20;;;;;;5060211;28;20486;-87
2024/02/22 13:13:33;;;;;;;1.60;1.00;;;14.00;98.20;;;;;;5049692;28;20485;-87
2024/02/22 13:22:56;;;;;;;1.57;1.00;;;14.00;98.20;;;;;;5058333;28;20474;-88
2024/02/22 13:25:30;;;;;;;1.60;1.00;;;14.10;98.20;;;;;;5059540;28;20957;-88
2024/02/22 13:28:23;;;;;;;1.60;1.00;;;14.10;98.20;;;;;;5039205;28;20509;-87
2024/02/22 13:30:59;;;;;;;1.60;1.10;;;14.10;98.20;;;;;;5036779;28;20898;-86
2024/02/22 13:33:34;;;;;;;1.50;1.00;;;14.20;98.20;;;;;;5049119;28;20842;-88
2024/02/22 13:36:01;;;;;;;1.77;1.50;;;14.20;98.20;;;;;;5035947;28;20485;-88
2024/02/22 13:38:39;;;;;;;;;;;;;;;;;;;;;
2024/02/22 13:59:36;;;;;;;1.53;1.00;;;14.00;98.20;;;;;;4994933;28;20492;-83
2024/02/22 14:02:03;;;;;;;1.60;1.00;;;14.00;98.20;;;;;;4994692;28;20894;-83
2024/02/22 14:04:34;;;;;;;1.97;1.77;;;13.90;98.20;;;;;;4999855;28;20532;-84
2024/02/22 16:37:07;;;;;;;1.60;1.10;;;13.10;98.20;;;;;;4957811;28;20499;-83
2024/02/22 17:05:35;;;;;;;1.57;1.03;;;12.90;98.20;;;;;;5012526;28;20488;-85
2024/02/22 17:14:14;;;;;;;1.60;1.10;;;12.70;98.20;;;;;;4924148;28;20478;-87
2024/02/22 17:22:52;;;;;;;1.60;1.00;;;12.60;98.20;;;;;;5034701;22;20492;-85
2024/02/22 17:25:21;;;;;;;1.60;1.10;;;12.60;98.20;;;;;;5005842;28;20804;-84
2024/02/22 17:28:16;;;;;;;1.53;1.10;;;12.50;98.20;;;;;;5019650;28;20496;-83
2024/02/22 17:30:46;;;;;;;1.60;1.10;;;12.50;98.20;;;;;;4990826;28;20497;-83
2024/02/22 17:33:15;;;;;;;1.53;1.10;;;12.50;98.20;;;;;;4980830;28;20469;-84
2024/02/22 17:35:52;;;;;;;1.53;1.00;;;12.50;98.20;;;;;;4992141;28;20885;-83
2024/02/22 17:38:19;;;;;;;1.60;1.00;;;12.50;98.20;;;;;;4984007;28;20535;-84
2024/02/22 17:40:49;;;;;;;1.60;1.10;;;12.50;98.20;;;;;;4989885;28;20457;-83
2024/02/22 17:43:16;;;;;;;1.60;1.10;;;12.50;98.20;;;;;;5008791;28;20473;-83
2024/02/22 17:45:43;;;;;;;1.53;1.00;;;12.50;98.20;;;;;;4990463;28;20493;-83
2024/02/22 17:48:10;;;;;;;1.57;1.10;;;12.50;98.20;;;;;;4999826;28;20480;-82